sensor_id;sensor_type;location;lat;lon;timestamp;P1;durP1;ratioP1;P2;durP2;ratioP2
30472;SDS011;17263;48.160;11.452;2022-08-01T00:00:35;2.40;;;2.00;;
30472;SDS011;17263;48.160;11.452;2022-08-01T00:03:01;1.97;;;1.80;;
30472;SDS011;17263;48.160;11.452;2022-08-01T00:05:27;2.30;;;2.10;;
30472;SDS011;17263;48.160;11.452;2022-08-01T00:07:53;2.20;;;2.00;;
30472;SDS011;17263;48.160;11.452;2022-08-01T00:10:19;2.37;;;2.17;;
30472;SDS011;17263;48.160;11.452;2022-08-01T00:12:46;2.70;;;2.03;;
30472;SDS011;17263;48.160;11.452;2022-08-01T00:15:13;3.10;;;2.20;;
30472;SDS011;17263;48.160;11.452;2022-08-01T00:17:41;4.77;;;1.90;;
30472;SDS011;17263;48.160;11.452;2022-08-01T00:20:08;2.47;;;2.27;;
30472;SDS011;17263;48.160;11.452;2022-08-01T00:22:36;2.20;;;2.00;;
30472;SDS011;17263;48.160;11.452;2022-08-01T00:25:03;2.90;;;1.97;;
30472;SDS011;17263;48.160;11.452;2022-08-01T00:27:30;4.30;;;2.30;;
30472;SDS011;17263;48.160;11.452;2022-08-01T00:29:57;2.63;;;2.10;;
30472;SDS011;17263;48.160;11.452;2022-08-01T00:32:23;2.43;;;2.23;;
30472;SDS011;17263;48.160;11.452;2022-08-01T00:34:49;2.30;;;2.10;;
30472;SDS011;17263;48.160;11.452;2022-08-01T00:37:15;3.13;;;2.13;;
30472;SDS011;17263;48.160;11.452;2022-08-01T00:39:42;2.50;;;2.30;;
30472;SDS011;17263;48.160;11.452;2022-08-01T00:42:08;2.63;;;2.07;;
30472;SDS011;17263;48.160;11.452;2022-08-01T00:44:36;2.40;;;2.17;;
30472;SDS011;17263;48.160;11.452;2022-08-01T00:47:03;2.50;;;2.30;;
30472;SDS011;17263;48.160;11.452;2022-08-01T00:49:29;3.63;;;2.50;;
30472;SDS011;17263;48.160;11.452;2022-08-01T00:51:55;2.40;;;2.20;;
30472;SDS011;17263;48.160;11.452;2022-08-01T00:54:24;2.87;;;2.13;;
30472;SDS011;17263;48.160;11.452;2022-08-01T00:56:52;2.20;;;2.00;;
30472;SDS011;17263;48.160;11.452;2022-08-01T00:59:19;4.27;;;2.57;;
30472;SDS011;17263;48.160;11.452;2022-08-01T01:01:47;3.17;;;2.30;;
30472;SDS011;17263;48.160;11.452;2022-08-01T01:04:14;2.57;;;2.30;;
30472;SDS011;17263;48.160;11.452;2022-08-01T01:06:48;2.63;;;2.43;;
30472;SDS011;17263;48.160;11.452;2022-08-01T01:09:33;2.40;;;1.90;;
30472;SDS011;17263;48.160;11.452;2022-08-01T01:15:13;2.67;;;2.40;;
30472;SDS011;17263;48.160;11.452;2022-08-01T01:17:46;2.30;;;2.10;;
30472;SDS011;17263;48.160;11.452;2022-08-01T01:20:17;4.60;;;2.40;;
30472;SDS011;17263;48.160;11.452;2022-08-01T01:23:04;4.53;;;2.67;;
30472;SDS011;17263;48.160;11.452;2022-08-01T01:26:29;3.27;;;2.50;;
30472;SDS011;17263;48.160;11.452;2022-08-01T01:29:00;3.13;;;2.27;;
30472;SDS011;17263;48.160;11.452;2022-08-01T01:31:47;2.40;;;2.20;;
30472;SDS011;17263;48.160;11.452;2022-08-01T01:34:19;2.67;;;2.27;;
30472;SDS011;17263;48.160;11.452;2022-08-01T01:36:47;2.30;;;1.87;;
30472;SDS011;17263;48.160;11.452;2022-08-01T01:39:15;3.10;;;2.30;;
30472;SDS011;17263;48.160;11.452;2022-08-01T01:41:42;3.40;;;2.30;;
30472;SDS011;17263;48.160;11.452;2022-08-01T01:44:10;2.50;;;2.30;;
30472;SDS011;17263;48.160;11.452;2022-08-01T01:46:37;2.30;;;2.10;;
30472;SDS011;17263;48.160;11.452;2022-08-01T01:49:03;2.53;;;2.33;;
30472;SDS011;17263;48.160;11.452;2022-08-01T01:51:35;2.57;;;2.27;;
30472;SDS011;17263;48.160;11.452;2022-08-01T01:54:02;2.53;;;2.33;;
30472;SDS011;17263;48.160;11.452;2022-08-01T01:56:30;2.53;;;2.10;;
30472;SDS011;17263;48.160;11.452;2022-08-01T01:58:59;4.70;;;2.43;;
30472;SDS011;17263;48.160;11.452;2022-08-01T02:01:31;2.37;;;2.17;;
30472;SDS011;17263;48.160;11.452;2022-08-01T02:03:59;2.83;;;2.40;;
30472;SDS011;17263;48.160;11.452;2022-08-01T02:06:28;2.33;;;2.13;;
30472;SDS011;17263;48.160;11.452;2022-08-01T02:08:57;3.07;;;2.30;;
30472;SDS011;17263;48.160;11.452;2022-08-01T02:11:24;3.63;;;2.30;;
30472;SDS011;17263;48.160;11.452;2022-08-01T02:13:52;3.13;;;2.20;;
30472;SDS011;17263;48.160;11.452;2022-08-01T02:16:21;2.57;;;2.37;;
30472;SDS011;17263;48.160;11.452;2022-08-01T02:18:49;3.03;;;2.50;;
30472;SDS011;17263;48.160;11.452;2022-08-01T02:21:17;3.57;;;2.10;;
30472;SDS011;17263;48.160;11.452;2022-08-01T02:23:50;2.40;;;2.20;;
30472;SDS011;17263;48.160;11.452;2022-08-01T02:26:17;2.83;;;2.43;;
30472;SDS011;17263;48.160;11.452;2022-08-01T02:28:49;2.40;;;2.20;;
30472;SDS011;17263;48.160;11.452;2022-08-01T02:31:20;2.40;;;2.20;;
30472;SDS011;17263;48.160;11.452;2022-08-01T02:33:53;2.70;;;2.17;;
30472;SDS011;17263;48.160;11.452;2022-08-01T02:36:28;3.10;;;2.40;;
30472;SDS011;17263;48.160;11.452;2022-08-01T02:38:55;2.77;;;2.50;;
30472;SDS011;17263;48.160;11.452;2022-08-01T02:41:24;2.40;;;2.20;;
30472;SDS011;17263;48.160;11.452;2022-08-01T02:43:53;2.50;;;2.30;;
30472;SDS011;17263;48.160;11.452;2022-08-01T02:46:27;2.50;;;2.30;;
30472;SDS011;17263;48.160;11.452;2022-08-01T02:49:00;2.83;;;2.40;;
30472;SDS011;17263;48.160;11.452;2022-08-01T02:51:29;4.13;;;2.33;;
30472;SDS011;17263;48.160;11.452;2022-08-01T02:53:57;2.37;;;2.17;;
30472;SDS011;17263;48.160;11.452;2022-08-01T02:56:26;3.10;;;2.00;;
30472;SDS011;17263;48.160;11.452;2022-08-01T02:59:33;3.17;;;2.13;;
30472;SDS011;17263;48.160;11.452;2022-08-01T03:01:56;2.30;;;2.10;;
30472;SDS011;17263;48.160;11.452;2022-08-01T03:04:24;2.83;;;2.50;;
30472;SDS011;17263;48.160;11.452;2022-08-01T03:06:52;2.60;;;2.30;;
30472;SDS011;17263;48.160;11.452;2022-08-01T03:09:22;3.40;;;2.47;;
30472;SDS011;17263;48.160;11.452;2022-08-01T03:11:49;2.60;;;2.40;;
30472;SDS011;17263;48.160;11.452;2022-08-01T03:14:16;2.53;;;2.33;;
30472;SDS011;17263;48.160;11.452;2022-08-01T03:16:45;3.40;;;2.40;;
30472;SDS011;17263;48.160;11.452;2022-08-01T03:19:12;2.63;;;2.30;;
30472;SDS011;17263;48.160;11.452;2022-08-01T03:21:39;3.07;;;2.20;;
30472;SDS011;17263;48.160;11.452;2022-08-01T03:24:07;3.30;;;2.30;;
30472;SDS011;17263;48.160;11.452;2022-08-01T03:26:35;2.37;;;2.07;;
30472;SDS011;17263;48.160;11.452;2022-08-01T03:29:04;2.63;;;2.43;;
30472;SDS011;17263;48.160;11.452;2022-08-01T03:31:34;2.73;;;2.53;;
30472;SDS011;17263;48.160;11.452;2022-08-01T03:34:01;3.37;;;2.10;;
30472;SDS011;17263;48.160;11.452;2022-08-01T03:36:28;4.23;;;2.70;;
30472;SDS011;17263;48.160;11.452;2022-08-01T03:38:57;2.57;;;2.30;;
30472;SDS011;17263;48.160;11.452;2022-08-01T03:41:29;4.00;;;2.50;;
30472;SDS011;17263;48.160;11.452;2022-08-01T03:44:24;2.47;;;2.23;;
30472;SDS011;17263;48.160;11.452;2022-08-01T03:47:01;2.73;;;2.53;;
30472;SDS011;17263;48.160;11.452;2022-08-01T03:49:31;3.00;;;2.40;;
30472;SDS011;17263;48.160;11.452;2022-08-01T03:52:00;2.93;;;2.57;;
30472;SDS011;17263;48.160;11.452;2022-08-01T03:54:31;2.60;;;2.40;;
30472;SDS011;17263;48.160;11.452;2022-08-01T03:56:59;3.43;;;2.67;;
30472;SDS011;17263;48.160;11.452;2022-08-01T03:59:27;2.60;;;2.40;;
30472;SDS011;17263;48.160;11.452;2022-08-01T04:01:54;3.57;;;2.60;;
30472;SDS011;17263;48.160;11.452;2022-08-01T04:04:21;3.23;;;2.23;;
30472;SDS011;17263;48.160;11.452;2022-08-01T04:06:47;3.17;;;2.33;;
30472;SDS011;17263;48.160;11.452;2022-08-01T04:09:19;3.00;;;2.50;;
30472;SDS011;17263;48.160;11.452;2022-08-01T04:11:47;2.50;;;2.30;;
30472;SDS011;17263;48.160;11.452;2022-08-01T04:14:13;3.13;;;2.40;;
30472;SDS011;17263;48.160;11.452;2022-08-01T04:16:39;2.77;;;2.37;;
30472;SDS011;17263;48.160;11.452;2022-08-01T04:19:05;3.40;;;2.40;;
30472;SDS011;17263;48.160;11.452;2022-08-01T04:21:34;2.60;;;2.40;;
30472;SDS011;17263;48.160;11.452;2022-08-01T04:24:06;2.87;;;2.40;;
30472;SDS011;17263;48.160;11.452;2022-08-01T04:26:36;3.07;;;2.53;;
30472;SDS011;17263;48.160;11.452;2022-08-01T04:29:04;3.33;;;2.53;;
30472;SDS011;17263;48.160;11.452;2022-08-01T04:31:33;3.33;;;2.73;;
30472;SDS011;17263;48.160;11.452;2022-08-01T04:34:01;3.03;;;2.77;;
30472;SDS011;17263;48.160;11.452;2022-08-01T04:36:30;3.00;;;2.57;;
30472;SDS011;17263;48.160;11.452;2022-08-01T04:38:59;3.37;;;2.20;;
30472;SDS011;17263;48.160;11.452;2022-08-01T04:41:27;2.73;;;2.53;;
30472;SDS011;17263;48.160;11.452;2022-08-01T04:43:55;2.70;;;2.50;;
30472;SDS011;17263;48.160;11.452;2022-08-01T04:46:24;3.37;;;2.60;;
30472;SDS011;17263;48.160;11.452;2022-08-01T04:48:52;3.57;;;2.80;;
30472;SDS011;17263;48.160;11.452;2022-08-01T04:51:20;2.80;;;2.60;;
30472;SDS011;17263;48.160;11.452;2022-08-01T04:53:47;2.83;;;2.53;;
30472;SDS011;17263;48.160;11.452;2022-08-01T04:56:16;2.90;;;2.43;;
30472;SDS011;17263;48.160;11.452;2022-08-01T04:58:43;2.90;;;2.60;;
30472;SDS011;17263;48.160;11.452;2022-08-01T05:01:10;2.93;;;2.53;;
30472;SDS011;17263;48.160;11.452;2022-08-01T05:03:36;2.77;;;2.47;;
30472;SDS011;17263;48.160;11.452;2022-08-01T05:06:02;4.27;;;2.47;;
30472;SDS011;17263;48.160;11.452;2022-08-01T05:08:29;3.07;;;2.43;;
30472;SDS011;17263;48.160;11.452;2022-08-01T05:10:55;7.70;;;2.67;;
30472;SDS011;17263;48.160;11.452;2022-08-01T05:13:21;3.40;;;2.53;;
30472;SDS011;17263;48.160;11.452;2022-08-01T05:15:47;2.97;;;2.60;;
30472;SDS011;17263;48.160;11.452;2022-08-01T05:18:13;4.33;;;2.50;;
30472;SDS011;17263;48.160;11.452;2022-08-01T05:20:39;2.40;;;2.20;;
30472;SDS011;17263;48.160;11.452;2022-08-01T05:23:07;4.17;;;2.50;;
30472;SDS011;17263;48.160;11.452;2022-08-01T05:25:33;4.37;;;2.37;;
30472;SDS011;17263;48.160;11.452;2022-08-01T05:27:59;2.73;;;2.50;;
30472;SDS011;17263;48.160;11.452;2022-08-01T05:30:25;2.70;;;2.33;;
30472;SDS011;17263;48.160;11.452;2022-08-01T05:32:51;3.23;;;2.43;;
30472;SDS011;17263;48.160;11.452;2022-08-01T05:35:17;3.83;;;2.10;;
30472;SDS011;17263;48.160;11.452;2022-08-01T05:37:43;2.80;;;2.23;;
30472;SDS011;17263;48.160;11.452;2022-08-01T05:40:10;3.27;;;2.17;;
30472;SDS011;17263;48.160;11.452;2022-08-01T05:42:36;3.90;;;2.40;;
30472;SDS011;17263;48.160;11.452;2022-08-01T05:45:02;3.45;;;2.35;;
30472;SDS011;17263;48.160;11.452;2022-08-01T05:47:29;2.83;;;2.40;;
30472;SDS011;17263;48.160;11.452;2022-08-01T05:49:55;3.50;;;2.35;;
30472;SDS011;17263;48.160;11.452;2022-08-01T05:52:21;4.22;;;2.10;;
30472;SDS011;17263;48.160;11.452;2022-08-01T05:54:47;3.28;;;2.20;;
30472;SDS011;17263;48.160;11.452;2022-08-01T05:57:13;3.20;;;2.20;;
30472;SDS011;17263;48.160;11.452;2022-08-01T05:59:39;3.38;;;2.22;;
30472;SDS011;17263;48.160;11.452;2022-08-01T06:02:05;4.10;;;2.30;;
30472;SDS011;17263;48.160;11.452;2022-08-01T06:04:31;2.38;;;2.17;;
30472;SDS011;17263;48.160;11.452;2022-08-01T06:06:57;20.88;;;3.97;;
30472;SDS011;17263;48.160;11.452;2022-08-01T06:09:23;2.45;;;2.20;;
30472;SDS011;17263;48.160;11.452;2022-08-01T06:11:49;2.95;;;2.30;;
30472;SDS011;17263;48.160;11.452;2022-08-01T06:14:16;2.22;;;2.00;;
30472;SDS011;17263;48.160;11.452;2022-08-01T06:16:42;4.15;;;2.05;;
30472;SDS011;17263;48.160;11.452;2022-08-01T06:19:08;6.65;;;2.63;;
30472;SDS011;17263;48.160;11.452;2022-08-01T06:21:34;2.58;;;2.20;;
30472;SDS011;17263;48.160;11.452;2022-08-01T06:24:00;5.68;;;2.05;;
30472;SDS011;17263;48.160;11.452;2022-08-01T06:26:26;2.83;;;1.90;;
30472;SDS011;17263;48.160;11.452;2022-08-01T06:28:52;4.07;;;2.10;;
30472;SDS011;17263;48.160;11.452;2022-08-01T06:31:18;2.75;;;2.00;;
30472;SDS011;17263;48.160;11.452;2022-08-01T06:33:44;2.75;;;2.08;;
30472;SDS011;17263;48.160;11.452;2022-08-01T06:36:10;3.03;;;2.10;;
30472;SDS011;17263;48.160;11.452;2022-08-01T06:38:37;2.50;;;2.17;;
30472;SDS011;17263;48.160;11.452;2022-08-01T06:41:03;2.55;;;2.33;;
30472;SDS011;17263;48.160;11.452;2022-08-01T06:43:29;2.25;;;2.15;;
30472;SDS011;17263;48.160;11.452;2022-08-01T06:45:56;2.80;;;1.90;;
30472;SDS011;17263;48.160;11.452;2022-08-01T06:48:22;4.07;;;2.13;;
30472;SDS011;17263;48.160;11.452;2022-08-01T06:50:48;2.42;;;2.22;;
30472;SDS011;17263;48.160;11.452;2022-08-01T06:53:14;2.30;;;2.10;;
30472;SDS011;17263;48.160;11.452;2022-08-01T06:55:40;2.40;;;2.20;;
30472;SDS011;17263;48.160;11.452;2022-08-01T06:58:06;2.70;;;2.50;;
30472;SDS011;17263;48.160;11.452;2022-08-01T07:00:32;3.28;;;2.35;;
30472;SDS011;17263;48.160;11.452;2022-08-01T07:02:58;2.85;;;2.63;;
30472;SDS011;17263;48.160;11.452;2022-08-01T07:05:25;4.50;;;2.50;;
30472;SDS011;17263;48.160;11.452;2022-08-01T07:07:51;4.07;;;2.58;;
30472;SDS011;17263;48.160;11.452;2022-08-01T07:10:17;4.45;;;2.20;;
30472;SDS011;17263;48.160;11.452;2022-08-01T07:12:44;2.10;;;1.90;;
30472;SDS011;17263;48.160;11.452;2022-08-01T07:15:10;3.33;;;2.13;;
30472;SDS011;17263;48.160;11.452;2022-08-01T07:17:39;4.10;;;2.30;;
30472;SDS011;17263;48.160;11.452;2022-08-01T07:20:07;2.42;;;2.22;;
30472;SDS011;17263;48.160;11.452;2022-08-01T07:22:34;2.72;;;2.30;;
30472;SDS011;17263;48.160;11.452;2022-08-01T07:25:00;3.88;;;2.40;;
30472;SDS011;17263;48.160;11.452;2022-08-01T07:27:26;3.67;;;2.50;;
30472;SDS011;17263;48.160;11.452;2022-08-01T07:29:52;2.67;;;2.47;;
30472;SDS011;17263;48.160;11.452;2022-08-01T07:32:19;3.72;;;2.45;;
30472;SDS011;17263;48.160;11.452;2022-08-01T07:34:45;2.63;;;2.10;;
30472;SDS011;17263;48.160;11.452;2022-08-01T07:37:11;3.35;;;2.30;;
30472;SDS011;17263;48.160;11.452;2022-08-01T07:39:37;2.70;;;2.30;;
30472;SDS011;17263;48.160;11.452;2022-08-01T07:42:03;2.85;;;2.53;;
30472;SDS011;17263;48.160;11.452;2022-08-01T07:44:29;2.38;;;2.17;;
30472;SDS011;17263;48.160;11.452;2022-08-01T07:46:56;2.85;;;2.40;;
30472;SDS011;17263;48.160;11.452;2022-08-01T07:49:22;2.88;;;2.55;;
30472;SDS011;17263;48.160;11.452;2022-08-01T07:51:48;2.67;;;2.25;;
30472;SDS011;17263;48.160;11.452;2022-08-01T07:54:14;2.25;;;2.08;;
30472;SDS011;17263;48.160;11.452;2022-08-01T07:56:40;5.22;;;2.22;;
30472;SDS011;17263;48.160;11.452;2022-08-01T07:59:06;3.90;;;2.08;;
30472;SDS011;17263;48.160;11.452;2022-08-01T08:01:32;8.10;;;2.83;;
30472;SDS011;17263;48.160;11.452;2022-08-01T08:03:58;2.35;;;2.15;;
30472;SDS011;17263;48.160;11.452;2022-08-01T08:06:24;2.53;;;2.20;;
30472;SDS011;17263;48.160;11.452;2022-08-01T08:08:50;3.45;;;2.30;;
30472;SDS011;17263;48.160;11.452;2022-08-01T08:11:19;2.58;;;2.38;;
30472;SDS011;17263;48.160;11.452;2022-08-01T08:13:45;2.85;;;2.30;;
30472;SDS011;17263;48.160;11.452;2022-08-01T08:16:11;3.78;;;2.20;;
30472;SDS011;17263;48.160;11.452;2022-08-01T08:18:37;2.53;;;2.20;;
30472;SDS011;17263;48.160;11.452;2022-08-01T08:21:03;2.72;;;2.10;;
30472;SDS011;17263;48.160;11.452;2022-08-01T08:23:29;3.63;;;2.30;;
30472;SDS011;17263;48.160;11.452;2022-08-01T08:26:14;3.00;;;2.35;;
30472;SDS011;17263;48.160;11.452;2022-08-01T08:28:40;3.45;;;2.40;;
30472;SDS011;17263;48.160;11.452;2022-08-01T08:31:06;4.03;;;2.58;;
30472;SDS011;17263;48.160;11.452;2022-08-01T08:33:33;3.63;;;2.30;;
30472;SDS011;17263;48.160;11.452;2022-08-01T08:35:59;3.78;;;2.47;;
30472;SDS011;17263;48.160;11.452;2022-08-01T08:38:25;4.80;;;2.40;;
30472;SDS011;17263;48.160;11.452;2022-08-01T08:40:52;3.42;;;2.47;;
30472;SDS011;17263;48.160;11.452;2022-08-01T08:43:18;2.95;;;2.45;;
30472;SDS011;17263;48.160;11.452;2022-08-01T08:45:45;2.90;;;2.40;;
30472;SDS011;17263;48.160;11.452;2022-08-01T08:48:14;2.47;;;2.28;;
30472;SDS011;17263;48.160;11.452;2022-08-01T08:50:42;2.40;;;2.15;;
30472;SDS011;17263;48.160;11.452;2022-08-01T08:53:12;4.38;;;2.22;;
30472;SDS011;17263;48.160;11.452;2022-08-01T08:55:41;3.42;;;2.47;;
30472;SDS011;17263;48.160;11.452;2022-08-01T08:58:11;2.53;;;2.33;;
30472;SDS011;17263;48.160;11.452;2022-08-01T09:00:40;3.25;;;2.33;;
30472;SDS011;17263;48.160;11.452;2022-08-01T09:03:06;3.95;;;2.50;;
30472;SDS011;17263;48.160;11.452;2022-08-01T09:05:32;2.47;;;2.28;;
30472;SDS011;17263;48.160;11.452;2022-08-01T09:07:58;2.28;;;2.08;;
30472;SDS011;17263;48.160;11.452;2022-08-01T09:10:24;3.05;;;2.10;;
30472;SDS011;17263;48.160;11.452;2022-08-01T09:13:08;2.08;;;1.88;;
30472;SDS011;17263;48.160;11.452;2022-08-01T09:15:40;2.95;;;2.03;;
30472;SDS011;17263;48.160;11.452;2022-08-01T09:18:08;2.95;;;2.13;;
30472;SDS011;17263;48.160;11.452;2022-08-01T09:20:50;2.38;;;2.17;;
30472;SDS011;17263;48.160;11.452;2022-08-01T09:23:35;2.60;;;2.00;;
30472;SDS011;17263;48.160;11.452;2022-08-01T09:26:15;2.20;;;2.10;;
30472;SDS011;17263;48.160;11.452;2022-08-01T09:28:43;6.93;;;2.00;;
30472;SDS011;17263;48.160;11.452;2022-08-01T09:31:11;2.05;;;1.70;;
30472;SDS011;17263;48.160;11.452;2022-08-01T09:33:46;3.50;;;1.95;;
30472;SDS011;17263;48.160;11.452;2022-08-01T09:36:17;1.88;;;1.77;;
30472;SDS011;17263;48.160;11.452;2022-08-01T09:38:48;1.70;;;1.60;;
30472;SDS011;17263;48.160;11.452;2022-08-01T09:41:14;2.13;;;1.70;;
30472;SDS011;17263;48.160;11.452;2022-08-01T09:43:41;3.13;;;1.98;;
30472;SDS011;17263;48.160;11.452;2022-08-01T09:46:14;2.22;;;2.00;;
30472;SDS011;17263;48.160;11.452;2022-08-01T09:48:59;1.80;;;1.65;;
30472;SDS011;17263;48.160;11.452;2022-08-01T09:51:38;2.17;;;1.90;;
30472;SDS011;17263;48.160;11.452;2022-08-01T09:54:05;2.67;;;2.15;;
30472;SDS011;17263;48.160;11.452;2022-08-01T09:56:36;3.30;;;1.98;;
30472;SDS011;17263;48.160;11.452;2022-08-01T09:59:03;2.40;;;2.13;;
30472;SDS011;17263;48.160;11.452;2022-08-01T10:01:49;3.80;;;2.05;;
30472;SDS011;17263;48.160;11.452;2022-08-01T10:04:17;3.08;;;1.83;;
30472;SDS011;17263;48.160;11.452;2022-08-01T10:06:46;2.45;;;1.77;;
30472;SDS011;17263;48.160;11.452;2022-08-01T10:09:28;3.50;;;1.98;;
30472;SDS011;17263;48.160;11.452;2022-08-01T10:11:55;2.10;;;1.75;;
30472;SDS011;17263;48.160;11.452;2022-08-01T10:14:23;2.28;;;1.75;;
30472;SDS011;17263;48.160;11.452;2022-08-01T10:16:51;2.15;;;1.95;;
30472;SDS011;17263;48.160;11.452;2022-08-01T10:19:20;3.80;;;1.80;;
30472;SDS011;17263;48.160;11.452;2022-08-01T10:21:48;1.90;;;1.63;;
30472;SDS011;17263;48.160;11.452;2022-08-01T10:24:19;3.42;;;1.90;;
30472;SDS011;17263;48.160;11.452;2022-08-01T10:26:49;3.22;;;1.80;;
30472;SDS011;17263;48.160;11.452;2022-08-01T10:29:20;2.17;;;1.88;;
30472;SDS011;17263;48.160;11.452;2022-08-01T10:31:47;3.42;;;2.15;;
30472;SDS011;17263;48.160;11.452;2022-08-01T10:34:14;2.10;;;1.90;;
30472;SDS011;17263;48.160;11.452;2022-08-01T10:36:44;1.90;;;1.80;;
30472;SDS011;17263;48.160;11.452;2022-08-01T10:39:11;3.42;;;1.63;;
30472;SDS011;17263;48.160;11.452;2022-08-01T10:41:38;2.90;;;2.08;;
30472;SDS011;17263;48.160;11.452;2022-08-01T10:44:08;2.63;;;2.00;;
30472;SDS011;17263;48.160;11.452;2022-08-01T10:46:37;4.45;;;2.00;;
30472;SDS011;17263;48.160;11.452;2022-08-01T10:49:11;2.08;;;1.70;;
30472;SDS011;17263;48.160;11.452;2022-08-01T10:51:40;2.08;;;1.90;;
30472;SDS011;17263;48.160;11.452;2022-08-01T10:54:08;3.30;;;1.95;;
30472;SDS011;17263;48.160;11.452;2022-08-01T10:56:42;2.75;;;1.98;;
30472;SDS011;17263;48.160;11.452;2022-08-01T10:59:14;2.50;;;1.92;;
30472;SDS011;17263;48.160;11.452;2022-08-01T11:01:55;2.35;;;1.83;;
30472;SDS011;17263;48.160;11.452;2022-08-01T11:04:32;4.28;;;1.70;;
30472;SDS011;17263;48.160;11.452;2022-08-01T11:07:20;8.00;;;2.00;;
30472;SDS011;17263;48.160;11.452;2022-08-01T11:09:58;3.35;;;1.83;;
30472;SDS011;17263;48.160;11.452;2022-08-01T11:12:39;2.33;;;1.90;;
30472;SDS011;17263;48.160;11.452;2022-08-01T11:17:42;3.35;;;2.10;;
30472;SDS011;17263;48.160;11.452;2022-08-01T11:30:41;1.80;;;1.70;;
30472;SDS011;17263;48.160;11.452;2022-08-01T11:33:12;1.73;;;1.63;;
30472;SDS011;17263;48.160;11.452;2022-08-01T11:36:16;2.78;;;2.53;;
30472;SDS011;17263;48.160;11.452;2022-08-01T11:38:41;3.40;;;2.00;;
30472;SDS011;17263;48.160;11.452;2022-08-01T11:41:24;2.75;;;2.05;;
30472;SDS011;17263;48.160;11.452;2022-08-01T11:46:47;2.75;;;2.00;;
30472;SDS011;17263;48.160;11.452;2022-08-01T11:52:08;2.30;;;1.70;;
30472;SDS011;17263;48.160;11.452;2022-08-01T11:54:37;1.55;;;1.45;;
30472;SDS011;17263;48.160;11.452;2022-08-01T11:57:11;2.33;;;1.50;;
30472;SDS011;17263;48.160;11.452;2022-08-01T11:59:39;3.00;;;1.70;;
30472;SDS011;17263;48.160;11.452;2022-08-01T12:02:15;1.70;;;1.60;;
30472;SDS011;17263;48.160;11.452;2022-08-01T12:04:50;2.25;;;1.70;;
30472;SDS011;17263;48.160;11.452;2022-08-01T12:07:22;1.98;;;1.50;;
30472;SDS011;17263;48.160;11.452;2022-08-01T12:09:56;1.40;;;1.30;;
30472;SDS011;17263;48.160;11.452;2022-08-01T12:12:29;2.85;;;1.60;;
30472;SDS011;17263;48.160;11.452;2022-08-01T12:15:00;2.60;;;1.73;;
30472;SDS011;17263;48.160;11.452;2022-08-01T12:17:32;1.58;;;1.30;;
30472;SDS011;17263;48.160;11.452;2022-08-01T12:20:03;1.83;;;1.48;;
30472;SDS011;17263;48.160;11.452;2022-08-01T12:22:31;2.05;;;1.50;;
30472;SDS011;17263;48.160;11.452;2022-08-01T12:25:04;1.90;;;1.58;;
30472;SDS011;17263;48.160;11.452;2022-08-01T12:27:34;1.83;;;1.67;;
30472;SDS011;17263;48.160;11.452;2022-08-01T12:30:03;2.05;;;1.60;;
30472;SDS011;17263;48.160;11.452;2022-08-01T12:32:32;1.60;;;1.50;;
30472;SDS011;17263;48.160;11.452;2022-08-01T12:37:37;1.70;;;1.60;;
30472;SDS011;17263;48.160;11.452;2022-08-01T12:42:45;2.55;;;1.67;;
30472;SDS011;17263;48.160;11.452;2022-08-01T12:45:26;1.75;;;1.50;;
30472;SDS011;17263;48.160;11.452;2022-08-01T12:47:55;2.35;;;1.58;;
30472;SDS011;17263;48.160;11.452;2022-08-01T12:50:25;1.73;;;1.33;;
30472;SDS011;17263;48.160;11.452;2022-08-01T12:52:53;3.63;;;1.40;;
30472;SDS011;17263;48.160;11.452;2022-08-01T12:55:20;2.88;;;1.33;;
30472;SDS011;17263;48.160;11.452;2022-08-01T12:57:48;3.17;;;1.40;;
30472;SDS011;17263;48.160;11.452;2022-08-01T13:00:22;2.00;;;1.50;;
30472;SDS011;17263;48.160;11.452;2022-08-01T13:08:30;1.80;;;1.35;;
30472;SDS011;17263;48.160;11.452;2022-08-01T13:16:06;5.47;;;1.50;;
30472;SDS011;17263;48.160;11.452;2022-08-01T13:18:33;2.22;;;1.90;;
30472;SDS011;17263;48.160;11.452;2022-08-01T13:21:07;2.13;;;1.40;;
30472;SDS011;17263;48.160;11.452;2022-08-01T13:23:37;3.38;;;1.88;;
30472;SDS011;17263;48.160;11.452;2022-08-01T13:26:04;2.80;;;1.60;;
30472;SDS011;17263;48.160;11.452;2022-08-01T13:28:31;3.95;;;1.80;;
30472;SDS011;17263;48.160;11.452;2022-08-01T13:30:59;5.03;;;1.60;;
30472;SDS011;17263;48.160;11.452;2022-08-01T13:33:47;2.58;;;1.63;;
30472;SDS011;17263;48.160;11.452;2022-08-01T13:36:14;1.67;;;1.55;;
30472;SDS011;17263;48.160;11.452;2022-08-01T13:38:41;2.85;;;1.60;;
30472;SDS011;17263;48.160;11.452;2022-08-01T13:41:26;4.35;;;1.40;;
30472;SDS011;17263;48.160;11.452;2022-08-01T13:43:52;1.42;;;1.30;;
30472;SDS011;17263;48.160;11.452;2022-08-01T13:46:19;1.83;;;1.40;;
30472;SDS011;17263;48.160;11.452;2022-08-01T13:48:45;2.20;;;1.40;;
30472;SDS011;17263;48.160;11.452;2022-08-01T13:51:11;1.70;;;1.30;;
30472;SDS011;17263;48.160;11.452;2022-08-01T13:53:37;1.85;;;1.33;;
30472;SDS011;17263;48.160;11.452;2022-08-01T13:56:03;1.45;;;1.35;;
30472;SDS011;17263;48.160;11.452;2022-08-01T13:58:29;1.40;;;1.30;;
30472;SDS011;17263;48.160;11.452;2022-08-01T14:00:55;1.88;;;1.40;;
30472;SDS011;17263;48.160;11.452;2022-08-01T14:03:21;1.40;;;1.30;;
30472;SDS011;17263;48.160;11.452;2022-08-01T14:05:48;1.98;;;1.50;;
30472;SDS011;17263;48.160;11.452;2022-08-01T14:08:14;4.82;;;1.55;;
30472;SDS011;17263;48.160;11.452;2022-08-01T14:10:41;1.92;;;1.77;;
30472;SDS011;17263;48.160;11.452;2022-08-01T14:13:07;2.75;;;1.85;;
30472;SDS011;17263;48.160;11.452;2022-08-01T14:15:33;4.03;;;2.00;;
30472;SDS011;17263;48.160;11.452;2022-08-01T14:17:59;2.63;;;1.55;;
30472;SDS011;17263;48.160;11.452;2022-08-01T14:20:25;3.75;;;1.70;;
30472;SDS011;17263;48.160;11.452;2022-08-01T14:22:51;5.03;;;1.80;;
30472;SDS011;17263;48.160;11.452;2022-08-01T14:25:17;1.90;;;1.80;;
30472;SDS011;17263;48.160;11.452;2022-08-01T14:27:44;3.15;;;1.60;;
30472;SDS011;17263;48.160;11.452;2022-08-01T14:30:11;2.85;;;1.70;;
30472;SDS011;17263;48.160;11.452;2022-08-01T14:32:37;3.03;;;1.80;;
30472;SDS011;17263;48.160;11.452;2022-08-01T14:35:04;3.30;;;1.90;;
30472;SDS011;17263;48.160;11.452;2022-08-01T14:37:31;2.00;;;1.80;;
30472;SDS011;17263;48.160;11.452;2022-08-01T14:39:58;2.80;;;1.90;;
30472;SDS011;17263;48.160;11.452;2022-08-01T14:42:25;2.15;;;1.70;;
30472;SDS011;17263;48.160;11.452;2022-08-01T14:44:51;3.38;;;1.90;;
30472;SDS011;17263;48.160;11.452;2022-08-01T14:47:17;3.00;;;1.70;;
30472;SDS011;17263;48.160;11.452;2022-08-01T14:49:43;2.33;;;1.85;;
30472;SDS011;17263;48.160;11.452;2022-08-01T14:52:09;2.00;;;1.80;;
30472;SDS011;17263;48.160;11.452;2022-08-01T14:54:35;2.10;;;1.90;;
30472;SDS011;17263;48.160;11.452;2022-08-01T14:57:01;2.47;;;2.00;;
30472;SDS011;17263;48.160;11.452;2022-08-01T14:59:27;3.10;;;1.75;;
30472;SDS011;17263;48.160;11.452;2022-08-01T15:01:53;2.67;;;2.03;;
30472;SDS011;17263;48.160;11.452;2022-08-01T15:04:19;2.78;;;1.80;;
30472;SDS011;17263;48.160;11.452;2022-08-01T15:06:45;3.35;;;1.70;;
30472;SDS011;17263;48.160;11.452;2022-08-01T15:09:11;3.45;;;2.00;;
30472;SDS011;17263;48.160;11.452;2022-08-01T15:11:37;4.75;;;2.10;;
30472;SDS011;17263;48.160;11.452;2022-08-01T15:14:03;6.47;;;4.93;;
30472;SDS011;17263;48.160;11.452;2022-08-01T15:16:48;4.63;;;2.50;;
30472;SDS011;17263;48.160;11.452;2022-08-01T15:19:14;3.60;;;2.05;;
30472;SDS011;17263;48.160;11.452;2022-08-01T15:21:41;5.60;;;2.00;;